Time;durP1;ratioP1;P1;durP2;ratioP2;P2;SDS_P1;SDS_P2;PMS_P1;PMS_P2;Temp;Humidity;BMP_temperature;BMP_pressure;BME280_temperature;BME280_humidity;BME280_pressure;Samples;Min_cycle;Max_cycle;Signal;HPM_P1;HPM_P2
2021/09/05 00:02:23;;;;;;;0.30;0.30;;;;;;;6.28;82.25;99268.56;5050692;28;20052;-65
2021/09/05 00:04:48;;;;;;;0.30;0.30;;;;;;;6.22;82.80;99269.09;5053047;28;20049;-68
2021/09/05 00:07:14;;;;;;;0.30;0.30;;;;;;;6.24;82.80;99267.13;5034564;28;20484;-64
2021/09/05 00:09:41;;;;;;;0.30;0.30;;;;;;;6.22;82.43;99264.59;5052226;28;20083;-70
2021/09/05 00:12:07;;;;;;;0.30;0.30;;;;;;;6.11;82.58;99267.34;5051029;28;20484;-64
2021/09/05 00:14:33;;;;;;;0.30;0.30;;;;;;;6.06;83.07;99266.03;5051076;28;20051;-67
2021/09/05 00:16:59;;;;;;;0.30;0.30;;;;;;;5.91;83.30;99271.69;5050261;28;20052;-66
2021/09/05 00:19:24;;;;;;;0.30;0.30;;;;;;;5.85;84.55;99277.59;5049758;28;20485;-65
2021/09/05 00:21:50;;;;;;;0.30;0.30;;;;;;;5.67;84.76;99271.13;5051453;28;20043;-66
2021/09/05 00:24:16;;;;;;;0.40;0.40;;;;;;;5.66;84.82;99277.44;5033025;28;20091;-66
2021/09/05 00:26:46;;;;;;;0.30;0.30;;;;;;;5.74;84.54;99275.81;5049478;28;20051;-65
2021/09/05 00:29:12;;;;;;;0.30;0.30;;;;;;;5.84;83.72;99281.25;5032929;28;20049;-64
2021/09/05 00:31:37;;;;;;;0.30;0.30;;;;;;;5.88;83.76;99281.84;5033017;28;20103;-66
2021/09/05 00:34:03;;;;;;;0.30;0.30;;;;;;;5.98;83.18;99283.63;5049949;28;20052;-66
2021/09/05 00:36:35;;;;;;;0.40;0.40;;;;;;;5.97;83.53;99281.09;5018129;28;20075;-65
2021/09/05 00:39:04;;;;;;;0.30;0.30;;;;;;;5.96;83.15;99279.38;5050476;28;20060;-65
2021/09/05 00:41:30;;;;;;;0.30;0.30;;;;;;;5.97;83.46;99287.31;5049396;28;20045;-65
2021/09/05 00:44:00;;;;;;;0.30;0.30;;;;;;;5.95;82.75;99288.41;5032594;28;20127;-65
2021/09/05 00:46:27;;;;;;;0.30;0.30;;;;;;;6.00;82.72;99292.41;5049274;28;20048;-66
2021/09/05 00:48:53;;;;;;;0.30;0.30;;;;;;;6.05;82.26;99294.69;5033016;28;20052;-65
2021/09/05 00:51:21;;;;;;;0.30;0.30;;;;;;;6.04;82.59;99299.22;5032681;28;20400;-66
2021/09/05 00:53:47;;;;;;;0.40;0.40;;;;;;;6.14;81.74;99293.03;5049472;28;20060;-66
2021/09/05 00:56:13;;;;;;;0.30;0.30;;;;;;;6.26;82.42;99303.59;5032851;28;20041;-67
2021/09/05 00:58:41;;;;;;;0.30;0.30;;;;;;;6.27;82.14;99304.44;5049314;28;20041;-67
2021/09/05 01:01:12;;;;;;;0.30;0.30;;;;;;;6.26;82.30;99308.13;5049981;28;20036;-64
2021/09/05 01:03:37;;;;;;;0.30;0.30;;;;;;;6.32;81.64;99296.81;5050295;28;20052;-66
2021/09/05 01:06:08;;;;;;;0.30;0.30;;;;;;;6.33;81.31;99313.81;5032609;28;20053;-65
2021/09/05 01:08:34;;;;;;;0.30;0.30;;;;;;;6.28;82.34;99300.75;5048934;28;20126;-65
2021/09/05 01:11:02;;;;;;;0.30;0.30;;;;;;;6.19;82.76;99306.94;5050492;28;20041;-67
2021/09/05 01:13:28;;;;;;;0.30;0.30;;;;;;;6.21;82.28;99318.38;5048996;28;20045;-66
2021/09/05 01:15:55;;;;;;;0.30;0.30;;;;;;;6.10;83.17;99318.44;5048855;28;20444;-69
2021/09/05 01:18:30;;;;;;;0.40;0.40;;;;;;;6.08;82.39;99315.91;5048998;28;20055;-65
2021/09/05 01:21:14;;;;;;;0.40;0.40;;;;;;;6.04;82.77;99315.31;5034688;28;20044;-65
2021/09/05 01:23:58;;;;;;;0.30;0.30;;;;;;;6.07;82.92;99324.06;5050101;28;20141;-65
2021/09/05 01:26:45;;;;;;;0.30;0.30;;;;;;;6.11;82.67;99320.16;5050168;28;20408;-64
2021/09/05 01:29:30;;;;;;;0.30;0.30;;;;;;;6.12;82.83;99322.72;5050299;28;20127;-62
2021/09/05 01:32:16;;;;;;;0.30;0.30;;;;;;;6.18;81.83;99332.06;5028770;28;20071;-65
2021/09/05 01:35:11;;;;;;;0.30;0.30;;;;;;;6.10;82.59;99329.19;5012446;28;20061;-64
2021/09/05 01:37:59;;;;;;;0.30;0.30;;;;;;;6.08;82.54;99339.22;5034836;28;20087;-65
2021/09/05 01:40:45;;;;;;;0.30;0.30;;;;;;;6.08;82.31;99348.09;5048726;28;20048;-66
2021/09/05 01:43:42;;;;;;;0.30;0.30;;;;;;;6.20;81.87;99344.38;4993417;28;20087;-65
2021/09/05 01:46:29;;;;;;;0.30;0.30;;;;;;;6.09;82.09;99346.28;5047923;28;20601;-65
2021/09/05 01:49:13;;;;;;;0.40;0.40;;;;;;;6.09;82.09;99348.97;5048919;28;20049;-65
2021/09/05 01:51:57;;;;;;;0.40;0.40;;;;;;;6.06;82.43;99343.84;5048560;28;20128;-66
2021/09/05 01:54:29;;;;;;;0.30;0.30;;;;;;;6.09;82.70;99344.44;5050107;28;20056;-63
2021/09/05 01:57:21;;;;;;;0.35;0.35;;;;;;;6.10;81.69;99350.66;5045748;28;20053;-67
2021/09/05 02:00:12;;;;;;;0.40;0.40;;;;;;;6.09;81.59;99348.97;5050117;28;20049;-67
2021/09/05 02:02:44;;;;;;;0.40;0.40;;;;;;;6.12;81.79;99359.44;5050332;28;20504;-66
2021/09/05 02:05:43;;;;;;;0.32;0.32;;;;;;;6.17;81.48;99357.19;5024336;28;20192;-65
2021/09/05 02:08:44;;;;;;;0.40;0.40;;;;;;;6.27;80.63;99363.50;4996082;28;20061;-66
2021/09/05 02:11:39;;;;;;;0.30;0.30;;;;;;;6.27;80.81;99374.22;5041367;28;20174;-65
2021/09/05 02:14:28;;;;;;;0.40;0.40;;;;;;;6.30;80.32;99382.03;5034263;28;20065;-65
2021/09/05 02:17:12;;;;;;;0.40;0.40;;;;;;;6.26;80.77;99375.22;5054923;28;20503;-65
2021/09/05 02:19:52;;;;;;;0.30;0.30;;;;;;;6.24;80.80;99379.84;5054047;28;20044;-66
2021/09/05 02:22:36;;;;;;;0.40;0.40;;;;;;;6.28;80.92;99383.97;5053946;28;20045;-67
2021/09/05 02:25:22;;;;;;;0.40;0.40;;;;;;;6.24;80.65;99387.91;5007837;28;20057;-68
2021/09/05 02:28:14;;;;;;;0.30;0.30;;;;;;;6.22;80.89;99392.56;5049286;28;20214;-67
2021/09/05 02:31:08;;;;;;;0.35;0.35;;;;;;;6.20;80.32;99389.16;5039415;28;20045;-65
2021/09/05 02:33:54;;;;;;;0.30;0.30;;;;;;;6.24;80.91;99395.97;5053538;28;20464;-66
2021/09/05 02:36:51;;;;;;;0.30;0.30;;;;;;;6.09;81.21;99405.31;5007166;28;20054;-64
2021/09/05 02:39:36;;;;;;;0.30;0.30;;;;;;;6.07;81.44;99410.81;5038219;28;20095;-65
2021/09/05 02:42:33;;;;;;;0.30;0.30;;;;;;;6.15;81.53;99412.84;5020796;28;20057;-64
2021/09/05 02:45:28;;;;;;;0.30;0.30;;;;;;;6.13;81.58;99414.81;5003720;28;20240;-64
2021/09/05 02:48:12;;;;;;;0.30;0.30;;;;;;;6.14;80.87;99416.50;5052662;28;20045;-64
2021/09/05 02:50:41;;;;;;;0.30;0.30;;;;;;;6.08;81.38;99427.78;5052355;28;20068;-65
2021/09/05 02:53:32;;;;;;;0.30;0.30;;;;;;;6.13;80.94;99436.28;5051083;28;20057;-64
2021/09/05 02:55:58;;;;;;;0.30;0.30;;;;;;;6.06;81.26;99433.25;5052467;28;20060;-65
2021/09/05 02:58:48;;;;;;;0.30;0.30;;;;;;;6.03;81.38;99436.19;5037930;28;20103;-65
2021/09/05 03:01:31;;;;;;;0.30;0.30;;;;;;;6.11;80.48;99438.25;5021681;28;20108;-65
2021/09/05 03:04:22;;;;;;;0.40;0.40;;;;;;;6.10;80.42;99447.25;5051212;28;20516;-64
2021/09/05 03:07:14;;;;;;;0.30;0.30;;;;;;;6.17;79.94;99453.81;5036564;28;20066;-66
2021/09/05 03:10:03;;;;;;;0.30;0.30;;;;;;;6.14;79.50;99443.34;5023376;28;20053;-65
2021/09/05 03:12:52;;;;;;;0.30;0.30;;;;;;;6.08;79.54;99450.09;5032387;28;20480;-65
2021/09/05 03:15:20;;;;;;;0.38;0.38;;;;;;;6.24;79.14;99460.38;5051677;28;20044;-66
2021/09/05 03:18:04;;;;;;;0.40;0.40;;;;;;;6.31;78.86;99466.94;5053575;28;20492;-66
2021/09/05 03:20:48;;;;;;;0.40;0.40;;;;;;;6.32;78.34;99465.94;5052627;28;20048;-66
2021/09/05 03:23:33;;;;;;;0.30;0.30;;;;;;;6.38;78.30;99467.28;5036621;28;20045;-65
2021/09/05 03:26:34;;;;;;;0.40;0.40;;;;;;;6.42;78.15;99480.31;5013324;28;20135;-64
2021/09/05 03:29:15;;;;;;;0.55;0.40;;;;;;;6.40;77.96;99471.56;5031918;28;20088;-65
2021/09/05 03:32:01;;;;;;;0.30;0.30;;;;;;;6.33;78.49;99481.09;5052283;28;20037;-66
2021/09/05 03:34:49;;;;;;;0.40;0.40;;;;;;;6.36;78.50;99490.72;5052345;28;20155;-64
2021/09/05 03:37:35;;;;;;;0.30;0.30;;;;;;;6.34;78.07;99487.31;5050372;28;20049;-64
2021/09/05 03:40:22;;;;;;;0.40;0.40;;;;;;;6.36;78.14;99491.59;5050087;28;20044;-64
2021/09/05 03:43:08;;;;;;;0.30;0.30;;;;;;;6.47;77.43;99498.72;5050893;28;20421;-65
2021/09/05 03:45:52;;;;;;;0.30;0.30;;;;;;;6.55;77.43;99500.78;5033391;28;20531;-65
2021/09/05 03:48:37;;;;;;;0.30;0.30;;;;;;;6.59;77.08;99503.06;5052830;28;20044;-65
2021/09/05 03:51:07;;;;;;;0.40;0.40;;;;;;;6.61;77.41;99511.84;5050571;28;20048;-65
2021/09/05 03:53:37;;;;;;;0.30;0.30;;;;;;;6.70;77.02;99510.22;5050328;28;20067;-65
2021/09/05 03:56:03;;;;;;;0.30;0.30;;;;;;;6.77;76.81;99508.72;5050396;28;20120;-66
2021/09/05 03:58:32;;;;;;;0.30;0.30;;;;;;;6.72;76.44;99519.84;5050446;28;20112;-65
2021/09/05 04:00:58;;;;;;;0.35;0.35;;;;;;;6.66;77.28;99516.84;5042850;28;20044;-64
2021/09/05 04:03:24;;;;;;;0.30;0.30;;;;;;;6.72;76.98;99518.97;5013775;28;20127;-65
2021/09/05 04:05:51;;;;;;;0.30;0.30;;;;;;;6.69;77.37;99527.31;4997992;28;20137;-65
2021/09/05 04:08:17;;;;;;;0.30;0.30;;;;;;;6.78;77.05;99529.22;5030711;28;20136;-65
2021/09/05 04:10:43;;;;;;;0.40;0.40;;;;;;;6.86;76.66;99525.88;5030849;28;20053;-66
2021/09/05 04:13:14;;;;;;;0.40;0.40;;;;;;;6.89;76.43;99523.78;5032303;28;20067;-65
2021/09/05 04:15:41;;;;;;;0.40;0.40;;;;;;;7.04;76.53;99518.09;5015092;28;20513;-65
2021/09/05 04:18:08;;;;;;;0.40;0.40;;;;;;;7.01;75.69;99525.41;5031422;28;20046;-66
2021/09/05 04:20:33;;;;;;;0.40;0.40;;;;;;;7.01;75.39;99524.56;5014553;28;20568;-66
2021/09/05 04:22:59;;;;;;;0.40;0.40;;;;;;;7.05;75.06;99531.38;5030629;28;20233;-68
2021/09/05 04:25:25;;;;;;;0.40;0.40;;;;;;;7.31;73.97;99542.56;5029966;28;20051;-67
2021/09/05 04:27:51;;;;;;;0.32;0.32;;;;;;;7.37;73.69;99542.03;5031680;28;20049;-66
2021/09/05 04:30:16;;;;;;;0.40;0.40;;;;;;;7.29;74.11;99533.78;5030493;28;20071;-65
2021/09/05 04:32:43;;;;;;;0.30;0.30;;;;;;;7.34;74.07;99553.06;5030225;28;20125;-67
2021/09/05 04:35:09;;;;;;;0.30;0.30;;;;;;;7.45;74.43;99549.44;5029220;28;20080;-67
2021/09/05 04:37:34;;;;;;;0.30;0.30;;;;;;;7.47;74.16;99556.41;5030177;28;20386;-67
2021/09/05 04:40:02;;;;;;;0.30;0.30;;;;;;;7.50;74.02;99560.66;5030091;28;20041;-66
2021/09/05 04:42:27;;;;;;;0.40;0.40;;;;;;;7.42;74.51;99550.59;5039714;28;20044;-67
2021/09/05 04:44:53;;;;;;;0.40;0.40;;;;;;;7.49;73.75;99567.88;5052088;28;20044;-66
2021/09/05 04:47:20;;;;;;;0.30;0.30;;;;;;;7.62;74.21;99572.19;5050507;28;20044;-67
2021/09/05 04:49:46;;;;;;;0.40;0.40;;;;;;;7.68;73.75;99567.13;5016848;28;20140;-67
2021/09/05 04:52:13;;;;;;;0.40;0.40;;;;;;;7.85;72.85;99570.16;5049861;28;20045;-69
2021/09/05 04:54:39;;;;;;;0.40;0.40;;;;;;;8.03;71.97;99573.06;5049529;28;20457;-68
2021/09/05 04:57:05;;;;;;;0.40;0.40;;;;;;;8.20;71.43;99572.41;5032955;28;20060;-66
2021/09/05 04:59:31;;;;;;;0.40;0.40;;;;;;;8.07;72.17;99577.16;5049703;28;20056;-67
2021/09/05 05:01:57;;;;;;;0.40;0.40;;;;;;;8.09;71.66;99581.44;5049640;28;20044;-69
2021/09/05 05:04:22;;;;;;;0.30;0.30;;;;;;;8.06;71.67;99580.84;5016872;28;20557;-68
2021/09/05 05:06:48;;;;;;;0.40;0.40;;;;;;;7.95;72.06;99579.97;5049331;28;20041;-69
2021/09/05 05:09:15;;;;;;;0.40;0.40;;;;;;;7.96;72.08;99584.34;5049688;28;20481;-69
2021/09/05 05:11:42;;;;;;;0.40;0.40;;;;;;;7.93;72.48;99581.97;5032679;28;20083;-66
2021/09/05 05:14:08;;;;;;;0.40;0.40;;;;;;;8.23;71.96;99588.28;5050091;28;20041;-69
2021/09/05 05:16:34;;;;;;;0.40;0.40;;;;;;;8.25;71.87;99590.81;5049751;28;20148;-69
2021/09/05 05:19:00;;;;;;;0.40;0.40;;;;;;;8.40;70.58;99584.06;5026968;28;20057;-67
2021/09/05 05:21:27;;;;;;;0.40;0.40;;;;;;;8.52;69.84;99582.09;5029198;28;20041;-70
2021/09/05 05:23:57;;;;;;;0.60;0.60;;;;;;;8.84;68.67;99588.09;5013106;28;20041;-67
2021/09/05 05:26:24;;;;;;;0.50;0.50;;;;;;;8.79;69.11;99587.69;5029164;28;20042;-69
2021/09/05 05:28:50;;;;;;;0.50;0.50;;;;;;;8.83;68.54;99585.56;5030932;28;20049;-67
2021/09/05 05:31:16;;;;;;;0.60;0.60;;;;;;;8.89;68.51;99585.84;4996756;28;20045;-69
2021/09/05 05:33:42;;;;;;;0.50;0.50;;;;;;;9.05;67.38;99587.09;5012897;28;20089;-68
2021/09/05 05:36:08;;;;;;;0.50;0.50;;;;;;;9.33;66.60;99588.91;5029525;28;20041;-70
2021/09/05 05:38:34;;;;;;;0.50;0.50;;;;;;;9.78;65.08;99601.72;5012878;28;20060;-68
2021/09/05 05:41:00;;;;;;;0.50;0.50;;;;;;;9.70;64.92;99601.59;5012728;28;20042;-69
2021/09/05 05:43:26;;;;;;;0.50;0.50;;;;;;;9.85;64.01;99605.53;5012577;28;20045;-68
2021/09/05 05:45:51;;;;;;;0.98;0.98;;;;;;;10.24;63.51;99599.97;4996384;28;20459;-67
2021/09/05 05:48:17;;;;;;;0.40;0.40;;;;;;;10.40;61.06;99615.53;5032782;28;20491;-69
2021/09/05 05:50:45;;;;;;;0.50;0.50;;;;;;;10.82;59.86;99605.03;5033175;28;20425;-68
2021/09/05 05:53:11;;;;;;;0.85;0.85;;;;;;;11.11;59.09;99614.75;5034211;28;20504;-67
2021/09/05 05:55:37;;;;;;;0.40;0.40;;;;;;;10.50;60.51;99610.09;5032802;28;20045;-68
2021/09/05 05:58:04;;;;;;;0.40;0.40;;;;;;;10.43;60.24;99609.84;5033029;28;20481;-68
2021/09/05 06:00:31;;;;;;;0.40;0.40;;;;;;;10.55;61.11;99624.00;5033935;28;20052;-68
2021/09/05 06:02:56;;;;;;;0.40;0.40;;;;;;;10.78;59.10;99611.72;5023597;28;20053;-70
2021/09/05 06:05:22;;;;;;;0.60;0.60;;;;;;;11.02;58.65;99621.09;5030755;28;20041;-69
2021/09/05 06:07:48;;;;;;;0.40;0.40;;;;;;;10.33;60.93;99620.69;5034336;28;20575;-69
2021/09/05 06:10:14;;;;;;;0.50;0.50;;;;;;;10.48;59.05;99622.88;5015020;28;20422;-68
2021/09/05 06:12:40;;;;;;;0.40;0.40;;;;;;;10.49;59.09;99630.00;5035490;28;20065;-69
2021/09/05 06:15:07;;;;;;;0.50;0.50;;;;;;;10.55;59.29;99637.50;5027014;28;20119;-69
2021/09/05 06:17:32;;;;;;;0.50;0.50;;;;;;;10.91;58.35;99629.44;5027803;28;20049;-69
2021/09/05 06:19:58;;;;;;;0.47;0.47;;;;;;;10.98;58.30;99641.34;5017486;28;20535;-69
2021/09/05 06:22:25;;;;;;;0.50;0.50;;;;;;;11.27;57.83;99641.97;5033778;28;20537;-68
2021/09/05 06:24:51;;;;;;;0.30;0.30;;;;;;;10.58;61.28;99639.91;5048089;28;20038;-69
2021/09/05 06:27:16;;;;;;;0.40;0.40;;;;;;;10.37;61.72;99642.88;5028900;28;20438;-69
2021/09/05 06:29:42;;;;;;;1.80;1.80;;;;;;;11.33;62.07;99651.28;5045696;28;20040;-70
2021/09/05 06:32:08;;;;;;;0.50;0.50;;;;;;;11.41;58.50;99653.22;5033043;28;20049;-67
2021/09/05 06:34:34;;;;;;;0.40;0.40;;;;;;;11.61;58.58;99654.75;5049633;28;20044;-68
2021/09/05 06:37:00;;;;;;;0.40;0.40;;;;;;;10.97;60.88;99653.16;5044210;28;20555;-69
2021/09/05 06:39:26;;;;;;;1.70;1.70;;;;;;;11.89;57.77;99657.34;5046796;28;20048;-72
2021/09/05 06:41:51;;;;;;;0.40;0.40;;;;;;;11.96;56.80;99663.84;5030095;28;20076;-71
2021/09/05 06:44:17;;;;;;;0.60;0.60;;;;;;;12.66;55.97;99661.78;5044241;28;20041;-68
2021/09/05 06:46:43;;;;;;;0.60;0.60;;;;;;;13.13;53.59;99650.38;5014172;28;20049;-70
2021/09/05 06:49:09;;;;;;;0.70;0.70;;;;;;;13.15;52.81;99661.88;5029152;28;20041;-70
2021/09/05 06:51:34;;;;;;;0.40;0.40;;;;;;;12.79;53.40;99664.84;5013749;28;20191;-74
2021/09/05 06:54:00;;;;;;;0.30;0.30;;;;;;;12.31;53.51;99673.66;5015163;28;20420;-71
2021/09/05 06:56:26;;;;;;;0.40;0.40;;;;;;;12.01;55.02;99683.16;5030255;28;20052;-70
2021/09/05 06:58:52;;;;;;;0.50;0.50;;;;;;;12.26;54.79;99679.56;5015638;28;20033;-69
2021/09/05 07:01:17;;;;;;;0.40;0.40;;;;;;;12.24;54.72;99684.28;5038893;28;20049;-69
2021/09/05 07:03:43;;;;;;;0.40;0.40;;;;;;;11.54;56.73;99680.75;5023828;28;20488;-70
2021/09/05 07:06:09;;;;;;;0.50;0.50;;;;;;;11.80;56.41;99691.59;5034988;28;20068;-69
2021/09/05 07:08:35;;;;;;;0.40;0.40;;;;;;;11.95;55.68;99684.63;5044815;28;20037;-71
2021/09/05 07:11:01;;;;;;;0.70;0.70;;;;;;;12.56;54.02;99696.31;5049704;28;20055;-69
2021/09/05 07:13:27;;;;;;;0.40;0.40;;;;;;;13.80;51.01;99701.00;5032327;28;20041;-69
2021/09/05 07:15:53;;;;;;;0.30;0.30;;;;;;;13.63;51.25;99706.41;5052742;28;20122;-71
2021/09/05 07:18:21;;;;;;;0.40;0.40;;;;;;;12.70;53.13;99703.84;5028658;28;20044;-69
2021/09/05 07:20:47;;;;;;;0.40;0.40;;;;;;;12.43;53.66;99717.59;5039033;28;20552;-69
2021/09/05 07:23:13;;;;;;;0.30;0.30;;;;;;;12.25;54.47;99712.28;5033263;28;20034;-69
2021/09/05 07:25:39;;;;;;;0.20;0.20;;;;;;;11.63;57.10;99727.69;5032220;28;20053;-69
2021/09/05 07:28:04;;;;;;;0.30;0.30;;;;;;;11.31;59.13;99727.25;5017867;28;20056;-68
2021/09/05 07:30:30;;;;;;;0.30;0.30;;;;;;;11.03;60.04;99731.00;5050793;28;20128;-69
2021/09/05 07:32:56;;;;;;;0.40;0.40;;;;;;;11.04;61.27;99727.28;5032297;28;20503;-69
2021/09/05 07:35:22;;;;;;;0.50;0.50;;;;;;;10.99;59.69;99741.25;5033211;28;20167;-69
2021/09/05 07:37:47;;;;;;;0.30;0.30;;;;;;;11.13;59.08;99742.63;5050641;28;20107;-69
2021/09/05 07:40:15;;;;;;;0.40;0.40;;;;;;;11.28;58.36;99751.91;5050706;28;20075;-70
2021/09/05 07:42:41;;;;;;;0.40;0.40;;;;;;;11.30;58.67;99744.50;5033987;28;20041;-70
2021/09/05 07:45:10;;;;;;;0.40;0.40;;;;;;;11.41;58.79;99748.84;5052143;28;20053;-70
2021/09/05 07:47:36;;;;;;;0.40;0.40;;;;;;;11.45;58.12;99754.78;5051766;28;20135;-70
2021/09/05 07:50:02;;;;;;;0.30;0.30;;;;;;;10.83;59.02;99768.97;5016301;28;20151;-69
2021/09/05 07:52:28;;;;;;;0.30;0.30;;;;;;;10.50;60.32;99766.84;5049765;28;20055;-69
2021/09/05 07:54:54;;;;;;;0.30;0.30;;;;;;;10.49;60.02;99770.53;5051913;28;20041;-69
2021/09/05 07:57:20;;;;;;;0.30;0.30;;;;;;;10.55;60.00;99776.22;5050325;28;20049;-70
2021/09/05 07:59:46;;;;;;;0.30;0.30;;;;;;;10.34;59.86;99780.97;5033743;28;20078;-69
2021/09/05 08:02:11;;;;;;;0.40;0.40;;;;;;;10.31;60.61;99783.97;5033432;28;20492;-68
2021/09/05 08:04:37;;;;;;;0.40;0.40;;;;;;;10.40;60.92;99784.94;5033763;28;20040;-69
2021/09/05 08:07:03;;;;;;;0.38;0.38;;;;;;;10.38;60.73;99785.97;5033534;28;20476;-68
2021/09/05 08:09:29;;;;;;;0.40;0.40;;;;;;;10.32;61.01;99791.94;5033569;28;20560;-69
2021/09/05 08:11:55;;;;;;;0.40;0.40;;;;;;;10.36;61.19;99792.50;5033819;28;20059;-69
2021/09/05 08:14:20;;;;;;;0.40;0.40;;;;;;;10.47;60.70;99795.03;5033277;28;20048;-69
2021/09/05 08:16:46;;;;;;;0.40;0.40;;;;;;;10.25;61.72;99806.16;5033242;28;20401;-69
2021/09/05 08:19:12;;;;;;;0.40;0.40;;;;;;;10.54;61.00;99795.28;5033457;28;20534;-69
2021/09/05 08:21:38;;;;;;;0.40;0.40;;;;;;;10.62;61.05;99803.50;5016876;28;20147;-69
2021/09/05 08:24:06;;;;;;;0.40;0.40;;;;;;;10.70;61.31;99809.03;5051427;28;20052;-69
2021/09/05 08:26:32;;;;;;;0.40;0.40;;;;;;;10.44;62.59;99816.94;5017023;28;20131;-69
2021/09/05 08:28:57;;;;;;;0.40;0.40;;;;;;;10.46;63.04;99808.69;5033166;28;20135;-69
2021/09/05 08:31:23;;;;;;;0.40;0.40;;;;;;;10.20;63.20;99817.41;5033171;28;20045;-69
2021/09/05 08:33:49;;;;;;;0.40;0.40;;;;;;;10.14;63.35;99815.25;5016657;28;20041;-69
2021/09/05 08:36:15;;;;;;;0.30;0.30;;;;;;;10.29;63.34;99823.81;5050720;28;20463;-70
2021/09/05 08:38:41;;;;;;;0.40;0.40;;;;;;;10.33;63.16;99825.22;5032730;28;20131;-70
2021/09/05 08:41:07;;;;;;;0.40;0.40;;;;;;;10.00;63.49;99821.09;5032898;28;20045;-70
2021/09/05 08:43:33;;;;;;;0.30;0.30;;;;;;;9.87;64.21;99835.75;5033186;28;20387;-70
2021/09/05 08:45:59;;;;;;;0.30;0.30;;;;;;;9.76;64.43;99833.22;5049412;28;20052;-69
2021/09/05 08:48:25;;;;;;;0.40;0.40;;;;;;;9.87;64.52;99841.16;5032710;28;20507;-69
2021/09/05 08:50:52;;;;;;;0.40;0.40;;;;;;;10.12;63.85;99834.31;5015966;28;20573;-71
2021/09/05 08:53:19;;;;;;;0.40;0.40;;;;;;;10.26;62.78;99846.56;5050698;28;20040;-70
2021/09/05 08:55:46;;;;;;;0.50;0.50;;;;;;;10.65;61.40;99841.06;4999833;28;20092;-69
2021/09/05 08:58:12;;;;;;;0.40;0.40;;;;;;;10.78;60.10;99830.75;5032752;28;20033;-69
2021/09/05 09:00:38;;;;;;;0.40;0.40;;;;;;;10.59;60.74;99838.94;5016371;28;20048;-70
2021/09/05 09:03:04;;;;;;;0.40;0.40;;;;;;;10.57;60.78;99854.47;5049293;28;20045;-69
2021/09/05 09:05:35;;;;;;;0.50;0.50;;;;;;;10.70;60.79;99838.75;5015955;28;20094;-69
2021/09/05 09:08:21;;;;;;;0.70;0.70;;;;;;;11.34;58.64;99848.72;5015985;28;20486;-69
2021/09/05 09:10:51;;;;;;;0.60;0.60;;;;;;;11.82;57.27;99844.00;5032308;28;20037;-69
2021/09/05 09:13:30;;;;;;;0.50;0.50;;;;;;;12.08;56.59;99849.50;5032895;28;20055;-70
2021/09/05 09:15:58;;;;;;;0.50;0.50;;;;;;;12.26;54.78;99839.50;5049189;28;20067;-69
2021/09/05 09:18:27;;;;;;;0.40;0.40;;;;;;;12.34;54.89;99843.28;5032640;28;20045;-69
2021/09/05 09:20:56;;;;;;;0.40;0.40;;;;;;;12.22;55.24;99838.13;5050527;28;20052;-69
2021/09/05 09:23:27;;;;;;;0.30;0.30;;;;;;;11.68;56.25;99834.53;5053034;28;20052;-70
2021/09/05 09:25:56;;;;;;;0.30;0.30;;;;;;;11.63;56.92;99846.81;5020196;28;20464;-69
2021/09/05 09:28:37;;;;;;;0.30;0.30;;;;;;;11.61;55.68;99844.28;5053083;28;20056;-70
2021/09/05 09:31:22;;;;;;;0.30;0.30;;;;;;;11.27;56.82;99846.78;5020519;28;20335;-70
2021/09/05 09:33:59;;;;;;;0.30;0.30;;;;;;;11.24;57.30;99847.94;5036951;28;20554;-69
2021/09/05 09:36:27;;;;;;;0.30;0.30;;;;;;;10.89;57.93;99853.22;5052867;28;20048;-69
2021/09/05 09:39:05;;;;;;;0.30;0.30;;;;;;;10.93;57.27;99860.03;5053224;28;20045;-69
2021/09/05 09:41:37;;;;;;;0.30;0.30;;;;;;;10.89;56.49;99854.06;5054409;28;20060;-69
2021/09/05 09:44:13;;;;;;;0.40;0.40;;;;;;;11.00;56.33;99850.31;5055427;28;20129;-69
2021/09/05 09:46:41;;;;;;;0.40;0.40;;;;;;;10.75;56.45;99854.53;5055642;28;20081;-69
2021/09/05 09:49:08;;;;;;;0.40;0.40;;;;;;;10.65;57.20;99862.69;5054552;28;20102;-70
2021/09/05 09:51:36;;;;;;;0.40;0.40;;;;;;;10.98;56.12;99857.75;5054438;28;20109;-69
2021/09/05 09:54:02;;;;;;;0.40;0.40;;;;;;;11.02;55.99;99859.16;5053216;28;20519;-69
2021/09/05 09:56:30;;;;;;;0.30;0.30;;;;;;;10.80;57.01;99857.66;5036972;28;20045;-68
2021/09/05 09:59:02;;;;;;;0.30;0.30;;;;;;;10.68;57.96;99867.81;5019555;28;20417;-68
2021/09/05 10:01:28;;;;;;;0.30;0.30;;;;;;;10.60;58.18;99870.38;5054213;28;20342;-69
2021/09/05 10:03:59;;;;;;;0.30;0.30;;;;;;;10.29;60.15;99867.88;5052888;28;20080;-68
2021/09/05 10:06:28;;;;;;;0.30;0.30;;;;;;;10.38;59.68;99872.44;5036205;28;20049;-69
2021/09/05 10:08:56;;;;;;;0.30;0.30;;;;;;;10.45;59.78;99872.69;5053086;28;20234;-69
2021/09/05 10:11:22;;;;;;;0.30;0.30;;;;;;;10.28;60.80;99877.00;5052513;28;20051;-68
2021/09/05 10:13:49;;;;;;;0.38;0.38;;;;;;;10.53;59.87;99885.47;5035788;28;20051;-69
2021/09/05 10:16:15;;;;;;;0.30;0.30;;;;;;;10.70;59.11;99879.31;5052457;28;20064;-69
2021/09/05 10:18:43;;;;;;;0.40;0.40;;;;;;;10.32;59.59;99873.00;5035796;28;20044;-69
2021/09/05 10:21:11;;;;;;;0.40;0.40;;;;;;;10.48;59.69;99882.38;5035548;28;20099;-69
2021/09/05 10:23:37;;;;;;;0.40;0.40;;;;;;;10.78;58.75;99889.41;5052208;28;20098;-69
2021/09/05 10:26:07;;;;;;;0.40;0.40;;;;;;;10.76;59.08;99877.91;5035436;28;20527;-69
2021/09/05 10:28:50;;;;;;;0.40;0.40;;;;;;;10.83;58.47;99871.75;5052249;28;20051;-69
2021/09/05 10:31:24;;;;;;;0.50;0.50;;;;;;;11.22;58.05;99879.69;5052418;28;20048;-69
2021/09/05 10:33:49;;;;;;;0.50;0.50;;;;;;;11.52;57.40;99873.13;5035576;28;20053;-69
2021/09/05 10:36:21;;;;;;;0.50;0.50;;;;;;;11.99;55.68;99875.69;5035406;28;20051;-68
2021/09/05 10:38:47;;;;;;;0.50;0.50;;;;;;;12.03;55.91;99876.25;5053240;28;20128;-69
2021/09/05 10:41:15;;;;;;;0.40;0.40;;;;;;;11.71;56.05;99883.00;5035163;28;20049;-69
2021/09/05 10:43:47;;;;;;;0.30;0.30;;;;;;;11.72;55.16;99870.28;5051601;28;20045;-69
2021/09/05 10:46:17;;;;;;;0.30;0.30;;;;;;;11.73;54.90;99880.97;5051771;28;20056;-69
2021/09/05 10:48:48;;;;;;;0.40;0.40;;;;;;;11.70;54.94;99892.13;5051496;28;20472;-69
2021/09/05 10:51:16;;;;;;;0.40;0.40;;;;;;;11.18;56.62;99889.13;5051418;28;20123;-69
2021/09/05 10:53:56;;;;;;;0.40;0.40;;;;;;;10.94;56.59;99878.00;5035196;28;20041;-69
2021/09/05 10:56:35;;;;;;;0.40;0.40;;;;;;;11.16;55.76;99887.56;5051531;28;20407;-68
2021/09/05 10:59:06;;;;;;;0.40;0.40;;;;;;;11.47;55.40;99885.41;5052820;28;20036;-69
2021/09/05 11:01:40;;;;;;;0.40;0.40;;;;;;;11.63;54.68;99884.75;5051478;28;20358;-69
2021/09/05 11:07:03;;;;;;;0.40;0.40;;;;;;;12.00;55.17;99877.38;5052539;28;20041;-69
2021/09/05 11:09:29;;;;;;;0.40;0.40;;;;;;;11.89;54.86;99879.50;5033754;28;20049;-73
2021/09/05 11:12:07;;;;;;;0.30;0.30;;;;;;;11.62;55.03;99883.88;5031728;28;20053;-72
2021/09/05 11:14:36;;;;;;;0.40;0.40;;;;;;;11.46;56.04;99883.72;5032880;28;20049;-68
2021/09/05 11:17:16;;;;;;;0.40;0.40;;;;;;;11.45;56.36;99882.03;5033763;28;20058;-70
2021/09/05 11:19:47;;;;;;;0.40;0.40;;;;;;;11.39;55.78;99882.63;5032107;28;20060;-69
2021/09/05 11:22:15;;;;;;;0.40;0.40;;;;;;;11.46;55.78;99879.16;5031565;28;20049;-70
2021/09/05 11:24:41;;;;;;;0.50;0.50;;;;;;;11.65;54.17;99889.00;5032258;28;20519;-69
2021/09/05 11:27:14;;;;;;;0.40;0.40;;;;;;;12.09;52.85;99881.03;5031210;28;20045;-69
2021/09/05 11:29:40;;;;;;;0.50;0.50;;;;;;;12.20;51.61;99878.06;5030748;28;20511;-70
2021/09/05 11:32:09;;;;;;;0.40;0.40;;;;;;;12.37;51.38;99880.94;5030711;28;20056;-69
2021/09/05 11:34:37;;;;;;;0.50;0.50;;;;;;;12.28;52.10;99880.84;4998269;28;20099;-69
2021/09/05 11:37:05;;;;;;;0.40;0.40;;;;;;;12.14;53.15;99873.28;5014880;28;20042;-69
2021/09/05 11:39:32;;;;;;;0.30;0.30;;;;;;;12.40;52.40;99877.91;5030732;28;20509;-69
2021/09/05 11:42:02;;;;;;;0.40;0.40;;;;;;;12.62;52.24;99882.81;5030358;28;20049;-69
2021/09/05 11:44:37;;;;;;;0.55;0.55;;;;;;;13.22;49.27;99885.53;4997648;28;20046;-70
2021/09/05 11:47:07;;;;;;;0.40;0.40;;;;;;;13.75;48.17;99870.81;5014878;28;20072;-69
2021/09/05 11:49:49;;;;;;;0.40;0.40;;;;;;;13.21;47.95;99872.13;5013882;28;20045;-69
2021/09/05 11:52:22;;;;;;;0.30;0.30;;;;;;;13.19;49.14;99880.41;5030524;28;20076;-69
2021/09/05 11:54:49;;;;;;;0.30;0.30;;;;;;;12.42;50.38;99876.72;5046927;28;20041;-70
2021/09/05 11:57:19;;;;;;;0.50;0.50;;;;;;;12.83;50.51;99874.28;5030720;28;20119;-70
2021/09/05 11:59:46;;;;;;;0.40;0.40;;;;;;;13.24;49.61;99883.56;5013930;28;20072;-70